createdAt,value
2018-05-11T10:01:45.838Z,80.18
2018-05-11T10:04:15.718Z,80.91
2018-05-11T10:06:45.529Z,79.35
2018-05-11T10:09:15.596Z,78.14
2018-05-11T10:11:45.438Z,75.91
2018-05-11T10:14:15.363Z,74.89
2018-05-11T10:16:45.028Z,72.27
2018-05-11T10:19:14.852Z,73.29
2018-05-11T10:21:44.541Z,70.23
2018-05-11T10:24:14.194Z,69.19
2018-05-11T10:26:44.886Z,67.77
2018-05-11T10:29:14.587Z,70.73
2018-05-11T10:31:44.434Z,70.77
2018-05-11T10:34:14.205Z,70.98
2018-05-11T10:36:43.968Z,70.99
2018-05-11T10:39:13.638Z,71.39
2018-05-11T10:41:44.347Z,72.20
2018-05-11T10:44:14.240Z,72.21
2018-05-11T10:46:43.932Z,72.83
2018-05-11T10:49:13.714Z,72.29
2018-05-11T10:51:43.451Z,71.75
2018-05-11T10:54:13.241Z,71.45
2018-05-11T10:56:43.105Z,70.44
2018-05-11T10:59:12.907Z,70.78
2018-05-11T11:01:42.667Z,69.92
2018-05-11T11:04:12.588Z,67.97
2018-05-11T11:06:42.316Z,65.01
2018-05-11T11:09:12.030Z,62.92
2018-05-11T11:11:41.780Z,64.23
2018-05-11T11:14:11.462Z,63.01
2018-05-11T11:16:41.079Z,64.63
2018-05-11T11:19:11.026Z,63.63
2018-05-11T11:21:40.743Z,62.38
2018-05-11T11:24:10.455Z,60.47
2018-05-11T11:26:40.255Z,60.37
2018-05-11T11:29:09.995Z,57.09
2018-05-11T11:31:39.828Z,57.39
2018-05-11T11:34:09.566Z,57.82
2018-05-11T11:36:39.326Z,55.75
2018-05-11T11:39:09.057Z,57.64
2018-05-11T11:41:38.912Z,59.73
2018-05-11T11:44:08.823Z,62.36
2018-05-11T11:46:38.579Z,60.81
2018-05-11T11:49:08.262Z,61.15
2018-05-11T11:51:38.094Z,62.25
2018-05-11T11:54:07.875Z,60.93
2018-05-11T11:56:37.695Z,57.84
2018-05-11T11:59:08.516Z,58.91
2018-05-11T12:01:38.432Z,61.29
2018-05-11T12:04:08.155Z,60.05
2018-05-11T12:06:37.920Z,60.23
2018-05-11T12:09:07.607Z,60.35
2018-05-11T12:11:37.307Z,59.77
2018-05-11T12:14:07.061Z,53.53
2018-05-11T12:16:36.839Z,54.82
2018-05-11T12:19:06.652Z,57.56
2018-05-11T12:21:36.627Z,57.48
2018-05-11T12:24:06.373Z,58.79
2018-05-11T12:26:36.102Z,61.21
2018-05-11T12:29:05.939Z,61.19
2018-05-11T12:31:35.734Z,61.46
2018-05-11T12:34:05.461Z,63.54
2018-05-11T12:36:35.330Z,64.28
2018-05-11T12:39:05.451Z,64.85
2018-05-11T12:41:35.139Z,64.56
2018-05-11T12:44:04.882Z,63.64
2018-05-11T12:46:35.688Z,64.56
2018-05-11T12:49:05.700Z,61.58
2018-05-11T12:51:35.470Z,61.61
2018-05-11T12:54:05.282Z,57.76
2018-05-11T12:56:35.130Z,57.97
2018-05-11T12:59:05.007Z,56.18
2018-05-11T13:01:34.680Z,55.49
2018-05-11T13:04:04.409Z,55.10
2018-05-11T13:06:34.279Z,54.90
2018-05-11T13:09:05.428Z,51.73
2018-05-11T13:11:35.078Z,50.47
2018-05-11T13:14:04.732Z,52.77
2018-05-11T13:16:34.593Z,54.12
2018-05-11T13:19:04.532Z,54.71
2018-05-11T13:21:34.303Z,57.62
2018-05-11T13:24:04.095Z,57.91
2018-05-11T13:26:34.764Z,60.00
2018-05-11T13:29:04.596Z,58.39
2018-05-11T13:31:34.295Z,59.42
2018-05-11T13:34:04.005Z,59.58
2018-05-11T13:36:33.688Z,59.08
2018-05-11T13:39:03.421Z,60.08
2018-05-11T13:41:33.315Z,57.60
2018-05-11T13:44:03.149Z,58.12
2018-05-11T13:46:32.891Z,59.59
2018-05-11T13:49:02.667Z,59.02
2018-05-11T13:51:32.372Z,58.84
2018-05-11T13:54:02.314Z,57.14
2018-05-11T13:56:32.167Z,56.49
2018-05-11T13:59:01.920Z,56.93
2018-05-11T14:01:31.558Z,56.57
2018-05-11T14:04:01.399Z,56.92
2018-05-11T14:06:31.050Z,58.30
2018-05-11T14:09:00.794Z,56.04
2018-05-11T14:11:30.414Z,56.09
2018-05-11T14:14:00.133Z,55.91
2018-05-11T14:16:29.916Z,54.62
2018-05-11T14:18:59.744Z,55.38
2018-05-11T14:21:29.564Z,55.96
2018-05-11T14:23:59.382Z,57.49
2018-05-11T14:26:29.102Z,59.09
2018-05-11T14:28:58.828Z,59.84
2018-05-11T14:31:29.658Z,61.01
2018-05-11T14:33:59.527Z,63.78
2018-05-11T14:36:29.147Z,63.51
2018-05-11T14:38:58.902Z,64.21
2018-05-11T14:41:28.617Z,66.10
2018-05-11T14:43:59.059Z,66.50
2018-05-11T14:46:28.836Z,65.69
2018-05-11T14:48:58.600Z,67.39
2018-05-11T14:51:28.252Z,67.82
2018-05-11T14:53:58.197Z,69.48
2018-05-11T14:56:28.058Z,69.09
2018-05-11T14:58:58.838Z,68.43
2018-05-11T15:01:28.689Z,69.24
2018-05-11T15:03:58.385Z,68.40
2018-05-11T15:06:28.390Z,67.95
2018-05-11T15:08:58.144Z,67.38
2018-05-11T15:11:27.931Z,67.37
2018-05-11T15:13:57.863Z,68.14
2018-05-11T15:16:27.621Z,68.63
2018-05-11T15:18:57.301Z,68.34
2018-05-11T15:21:27.115Z,67.76
2018-05-11T15:23:56.903Z,64.65
2018-05-11T15:26:26.618Z,65.75
2018-05-11T15:28:56.374Z,65.32
2018-05-11T15:31:26.057Z,66.11
2018-05-11T15:33:55.757Z,65.85
2018-05-11T15:36:25.366Z,63.19
2018-05-11T15:38:55.149Z,64.78
2018-05-11T15:44:15.183Z,62.12
2018-05-11T15:46:44.896Z,62.78
2018-05-11T15:49:14.604Z,64.14
2018-05-11T15:51:44.393Z,62.87
2018-05-11T15:54:14.182Z,62.73
2018-05-11T15:56:43.763Z,64.65
2018-05-11T15:59:13.474Z,65.05
2018-05-11T16:01:43.328Z,66.55
2018-05-11T16:04:12.919Z,66.75
2018-05-11T16:06:42.717Z,67.61
2018-05-11T16:09:12.468Z,68.12
2018-05-11T16:11:42.178Z,66.42
2018-05-11T16:14:11.940Z,65.59
2018-05-11T16:16:41.815Z,66.86
2018-05-11T16:19:11.524Z,66.35
2018-05-11T16:21:41.205Z,68.13
2018-05-11T16:24:10.943Z,68.48
2018-05-11T16:26:40.656Z,68.98
2018-05-11T16:29:11.377Z,69.09
2018-05-11T16:31:41.287Z,68.47
2018-05-11T16:34:10.898Z,69.16
2018-05-11T16:36:40.617Z,69.14
2018-05-11T16:39:10.298Z,69.83
2018-05-11T16:41:40.040Z,68.80
2018-05-11T16:44:09.908Z,68.19
2018-05-11T16:46:39.770Z,66.83
2018-05-11T16:49:09.635Z,64.83
2018-05-11T16:51:39.297Z,65.74
2018-05-11T16:54:09.115Z,66.26
2018-05-11T16:56:38.896Z,65.93
2018-05-11T16:59:08.514Z,61.47
2018-05-11T17:01:38.252Z,59.83
2018-05-11T17:04:07.958Z,58.89
2018-05-11T17:06:37.769Z,59.35
2018-05-11T17:09:07.652Z,58.83
2018-05-11T17:11:37.473Z,60.42
2018-05-11T17:14:07.211Z,60.74
2018-05-11T17:16:36.942Z,61.29
2018-05-11T17:19:06.752Z,60.90
2018-05-11T17:21:36.425Z,61.33
2018-05-11T17:24:06.255Z,60.58
2018-05-11T17:26:35.977Z,60.59
2018-05-11T17:29:05.825Z,60.80
2018-05-11T17:31:35.535Z,61.33
2018-05-11T17:34:05.340Z,62.08
2018-05-11T17:36:35.098Z,63.61
2018-05-11T17:39:05.092Z,63.37
2018-05-11T17:41:34.792Z,64.16
2018-05-11T17:44:04.671Z,63.38
2018-05-11T17:46:34.404Z,64.18
2018-05-11T17:49:05.238Z,65.07
2018-05-11T17:51:34.944Z,66.22
2018-05-11T17:54:04.719Z,67.12
2018-05-11T17:56:34.454Z,68.64
2018-05-11T17:59:04.319Z,70.29
2018-05-11T18:01:33.937Z,71.59
2018-05-11T18:04:03.794Z,71.75
2018-05-11T18:06:33.471Z,72.44
2018-05-11T18:09:03.459Z,73.60
2018-05-11T18:11:33.243Z,74.47
2018-05-11T18:14:02.840Z,75.05
2018-05-11T18:16:32.625Z,75.80
2018-05-11T18:19:02.522Z,76.61
2018-05-11T18:21:32.085Z,77.42
2018-05-11T18:24:01.667Z,78.67
2018-05-11T18:26:31.754Z,78.89
2018-05-11T18:29:01.435Z,79.70
2018-05-11T18:31:31.208Z,80.99
2018-05-11T18:34:01.000Z,80.58
2018-05-11T18:36:30.592Z,81.87
2018-05-11T18:39:00.450Z,82.16
2018-05-11T18:41:30.055Z,82.41
2018-05-11T18:43:59.964Z,82.31
2018-05-11T18:46:29.912Z,82.88
2018-05-11T18:48:59.546Z,83.25
2018-05-11T18:51:29.325Z,82.86
2018-05-11T18:53:59.401Z,83.78
2018-05-11T18:56:28.715Z,84.02
2018-05-11T18:58:58.707Z,83.82
2018-05-11T19:01:28.321Z,84.14
2018-05-11T19:03:57.931Z,85.15
2018-05-11T19:06:27.864Z,85.38
2018-05-11T19:08:57.644Z,85.83
2018-05-11T19:11:27.332Z,86.25
2018-05-11T19:13:57.109Z,86.41
2018-05-11T19:16:26.671Z,86.45
2018-05-11T19:18:56.424Z,86.94
2018-05-11T19:21:26.241Z,86.74
2018-05-11T19:23:56.079Z,87.84
2018-05-11T19:26:25.799Z,87.62
2018-05-11T19:28:56.529Z,88.34
2018-05-11T19:31:26.147Z,88.01
2018-05-11T19:33:56.080Z,88.29
2018-05-11T19:36:26.880Z,88.65
2018-05-11T19:38:56.687Z,89.02
2018-05-11T19:41:26.376Z,89.33
2018-05-11T19:43:56.211Z,89.41
2018-05-11T19:46:26.992Z,89.81
2018-05-11T19:48:57.785Z,90.17
2018-05-11T19:51:27.282Z,89.94
2018-05-11T19:53:56.965Z,90.70
2018-05-11T19:56:26.701Z,90.17
2018-05-11T19:58:56.406Z,90.23
2018-05-11T20:01:26.058Z,91.32
2018-05-11T20:03:55.997Z,91.75
2018-05-11T20:06:25.842Z,91.79
2018-05-11T20:08:55.491Z,92.39
2018-05-11T20:11:25.189Z,92.82
2018-05-11T20:13:54.797Z,93.16
2018-05-11T20:16:24.455Z,93.47
2018-05-11T20:18:54.146Z,93.77
2018-05-11T20:21:23.955Z,93.49
2018-05-11T20:23:53.995Z,93.68
2018-05-11T20:26:23.748Z,94.77
2018-05-11T20:28:53.419Z,94.69
2018-05-11T20:31:23.668Z,95.09
2018-05-11T20:33:53.482Z,95.69
2018-05-11T20:36:23.220Z,95.67
2018-05-11T20:38:52.950Z,96.24
2018-05-11T20:41:22.640Z,96.57
2018-05-11T20:43:52.384Z,96.80
2018-05-11T20:46:22.233Z,97.36
2018-05-11T20:48:52.086Z,97.18
2018-05-11T20:51:21.895Z,97.82
2018-05-11T20:53:51.594Z,97.58
2018-05-11T20:56:21.504Z,97.19
2018-05-11T20:58:52.319Z,96.48
2018-05-11T21:01:21.982Z,96.24
2018-05-11T21:03:51.786Z,96.04
2018-05-11T21:06:21.572Z,95.38
2018-05-11T21:08:51.401Z,94.88
2018-05-11T21:11:20.991Z,95.43
2018-05-11T21:13:50.811Z,95.50
2018-05-11T21:16:20.441Z,94.77
2018-05-11T21:18:50.175Z,95.05
2018-05-11T21:21:19.936Z,94.88
2018-05-11T21:23:49.744Z,95.10
2018-05-11T21:26:19.307Z,95.19
2018-05-11T21:28:48.908Z,95.45
2018-05-11T21:31:18.720Z,96.34
2018-05-11T21:33:48.439Z,96.32
2018-05-11T21:36:18.311Z,96.87
2018-05-11T21:38:48.102Z,97.19
2018-05-11T21:41:17.873Z,97.33
2018-05-11T21:43:47.667Z,97.47
2018-05-11T21:46:17.403Z,97.65
2018-05-11T21:48:47.074Z,98.16
2018-05-11T21:51:16.771Z,98.25
2018-05-11T21:53:46.567Z,98.06
2018-05-11T21:56:16.264Z,98.19
2018-05-11T21:58:46.028Z,98.32
2018-05-11T22:01:15.740Z,98.55
2018-05-11T22:03:45.357Z,98.67
2018-05-11T22:06:15.161Z,98.67
2018-05-11T22:08:44.831Z,98.24
2018-05-11T22:11:14.354Z,97.36
2018-05-11T22:13:44.101Z,96.19
2018-05-11T22:16:13.788Z,97.25
2018-05-11T22:18:43.495Z,98.22
2018-05-11T22:21:13.274Z,99.35
2018-05-11T22:23:42.996Z,99.62
2018-05-11T22:26:12.727Z,98.14
2018-05-11T22:28:42.488Z,96.87
2018-05-11T22:31:12.047Z,96.41
2018-05-11T22:33:41.850Z,97.84
2018-05-11T22:36:11.659Z,99.46
2018-05-11T22:38:41.490Z,99.57
2018-05-11T22:41:11.091Z,99.26
2018-05-11T22:43:40.871Z,98.60
2018-05-11T22:46:10.485Z,99.31
2018-05-11T22:48:40.151Z,99.20
2018-05-11T22:51:09.832Z,99.53
2018-05-11T22:53:39.603Z,99.97
2018-05-11T22:56:09.185Z,100.00
2018-05-11T22:58:38.908Z,100.00
2018-05-11T23:01:08.628Z,100.00
2018-05-11T23:03:38.416Z,100.00
2018-05-11T23:06:08.110Z,100.00
2018-05-11T23:08:37.830Z,100.00
2018-05-11T23:11:07.471Z,100.00
2018-05-11T23:13:37.163Z,100.00
2018-05-11T23:16:06.884Z,100.00
2018-05-11T23:18:36.675Z,100.00
2018-05-11T23:21:06.525Z,100.00
2018-05-11T23:23:36.114Z,100.00
2018-05-11T23:26:05.767Z,100.00
2018-05-11T23:28:35.587Z,100.00
2018-05-11T23:31:05.219Z,100.00
2018-05-11T23:33:34.911Z,100.00
2018-05-11T23:36:04.482Z,99.94
2018-05-11T23:38:34.302Z,99.43
2018-05-11T23:41:04.104Z,99.48
2018-05-11T23:43:33.833Z,100.00
2018-05-11T23:46:03.572Z,100.00
2018-05-11T23:48:33.262Z,100.00
2018-05-11T23:51:03.022Z,100.00
2018-05-11T23:53:32.665Z,99.61
2018-05-11T23:56:02.368Z,100.00
2018-05-11T23:58:31.964Z,100.00
